Terminal Aerodrome Forecast
Issued by NWS

Home | Current Version | Previous Version | Text Only | Print | Product List | Glossary On
Versions: 1 2 3 4 5 6 7 8 9 10 11 12 13 14 15 16 17 18 19 20 21 22 23 24 25 26 27
000
FTUS45 KGJT 011126
TAFVEL
TAF
KVEL 011126Z 0112/0212 28004KT P6SM BKN200
     FM011400 VRB03KT P6SM SCT090 BKN200
     FM012000 25005KT P6SM VCTS SCT090CB BKN140
     FM020300 28005KT P6SM FEW090 BKN200
     FM020600 32005KT P6SM SKC=

USA.gov is the U.S. government's official web portal to all federal, state and local government web resources and services.